Time;durP1;ratioP1;P1;durP2;ratioP2;P2;SDS_P1;SDS_P2;PMS_P1;PMS_P2;Temp;Humidity;BMP_temperature;BMP_pressure;BME280_temperature;BME280_humidity;BME280_pressure;Samples;Min_cycle;Max_cycle;Signal;HPM_P1;HPM_P2
2022/02/15 02:48:22;;;;;;;;;;;;;;;;;;;;;
2022/02/15 02:51:39;;;;;;;8.85;6.70;;;7.50;1.00;;;;;;6242545;22;20191;-89
2022/02/15 03:02:17;;;;;;;8.15;7.05;;;7.30;1.00;;;;;;6293078;22;20214;-89
2022/02/15 03:05:18;;;;;;;7.72;6.93;;;7.30;1.00;;;;;;6251524;22;20201;-88
2022/02/15 03:11:23;;;;;;;9.20;7.85;;;7.20;1.00;;;;;;6240541;22;20210;-87
2022/02/15 03:14:29;;;;;;;8.00;7.20;;;7.10;1.00;;;;;;6220683;22;20244;-86
2022/02/15 03:16:58;;;;;;;10.45;7.63;;;7.10;1.00;;;;;;6200928;22;20193;-89
2022/02/15 03:19:25;;;;;;;7.70;6.82;;;7.10;1.00;;;;;;6217261;22;21311;-87
2022/02/15 03:22:06;;;;;;;7.00;6.35;;;7.00;1.00;;;;;;6217265;22;20197;-88
2022/02/15 03:27:34;;;;;;;8.60;6.95;;;6.90;1.00;;;;;;6269607;22;20216;-90
2022/02/15 03:30:11;;;;;;;8.57;7.30;;;6.90;1.00;;;;;;6294082;22;20212;-89
2022/02/15 03:35:22;;;;;;;8.43;7.30;;;6.80;1.00;;;;;;6280261;22;20260;-91
2022/02/15 03:38:04;;;;;;;10.10;7.55;;;6.80;1.00;;;;;;6300458;22;20181;-89
2022/02/15 03:44:32;;;;;;;8.98;7.65;;;6.80;1.00;;;;;;6216288;22;20205;-88
2022/02/15 03:50:45;;;;;;;9.38;7.53;;;6.70;1.00;;;;;;6275385;22;20200;-89
2022/02/15 03:53:41;;;;;;;10.13;8.10;;;6.70;1.00;;;;;;6272132;22;20204;-88
2022/02/15 05:31:34;;;;;;;14.52;9.80;;;6.30;1.00;;;;;;6174789;23;20194;-86
2022/02/15 05:34:01;;;;;;;11.27;9.32;;;6.20;1.00;;;;;;6277860;22;20222;-87
2022/02/15 05:36:28;;;;;;;12.13;9.00;;;6.20;1.00;;;;;;6299789;22;20199;-85
2022/02/15 05:38:54;;;;;;;10.98;9.88;;;6.20;1.00;;;;;;6333293;22;20269;-82
2022/02/15 05:41:58;;;;;;;14.18;7.75;;;6.20;1.00;;;;;;6307258;22;20389;-84
2022/02/15 05:51:10;;;;;;;11.40;7.75;;;6.40;1.00;;;;;;6301718;22;20203;-88
2022/02/15 05:54:56;;;;;;;10.25;8.82;;;6.40;1.00;;;;;;6205252;23;20204;-84
2022/02/15 06:26:10;;;;;;;10.13;7.15;;;6.60;1.00;;;;;;6173777;22;20330;-89
2022/02/15 06:56:19;;;;;;;12.32;7.85;;;6.60;1.00;;;;;;6292933;22;20210;-86
2022/02/15 06:58:59;;;;;;;9.23;8.05;;;6.60;1.00;;;;;;6350361;22;20252;-86
2022/02/15 07:01:26;;;;;;;10.70;7.80;;;6.70;1.00;;;;;;6356979;22;20221;-86
2022/02/15 07:03:56;;;;;;;9.55;6.05;;;6.80;1.00;;;;;;6320922;22;20195;-86
2022/02/15 07:06:26;;;;;;;8.23;7.00;;;6.90;1.00;;;;;;6346516;22;20230;-89
2022/02/15 07:09:05;;;;;;;9.07;6.57;;;6.90;1.00;;;;;;6325054;22;20190;-87
2022/02/15 07:11:36;;;;;;;7.45;6.03;;;6.90;1.00;;;;;;6291034;22;20282;-87
2022/02/15 07:14:08;;;;;;;14.02;6.20;;;6.90;1.00;;;;;;6291224;22;20245;-86
2022/02/15 07:16:41;;;;;;;8.60;6.20;;;6.90;1.00;;;;;;6326043;22;20382;-84
2022/02/15 07:19:17;;;;;;;15.35;6.93;;;7.00;1.00;;;;;;6329094;22;20176;-89
2022/02/15 07:21:47;;;;;;;9.90;6.03;;;7.00;1.00;;;;;;6316933;22;20187;-87
2022/02/15 07:52:14;;;;;;;11.57;6.60;;;7.50;1.00;;;;;;6124874;22;21175;-89
2022/02/15 07:57:28;;;;;;;15.05;8.52;;;7.50;1.00;;;;;;6289736;22;20230;-89
2022/02/15 08:00:10;;;;;;;11.40;8.57;;;7.50;1.00;;;;;;6287616;22;20199;-88
2022/02/15 08:05:46;;;;;;;9.70;8.40;;;7.50;1.00;;;;;;6302743;22;20195;-89
2022/02/15 08:08:44;;;;;;;13.43;8.77;;;7.60;1.00;;;;;;6292955;22;20197;-89
2022/02/15 08:11:26;;;;;;;13.48;8.98;;;7.50;1.00;;;;;;6292498;22;20183;-87
2022/02/15 08:13:59;;;;;;;10.13;7.85;;;7.50;1.00;;;;;;6288482;22;20199;-88
2022/02/15 08:16:36;;;;;;;10.93;7.75;;;7.50;1.00;;;;;;6313635;22;20200;-88
2022/02/15 08:19:04;;;;;;;8.68;6.85;;;7.60;1.00;;;;;;6291728;22;20921;-88
2022/02/15 08:21:33;;;;;;;12.43;7.75;;;7.60;1.00;;;;;;6292932;22;20435;-88
2022/02/15 08:24:16;;;;;;;9.73;7.18;;;7.60;1.00;;;;;;6319876;22;20197;-87
2022/02/15 08:26:54;;;;;;;8.90;5.97;;;7.70;1.00;;;;;;6316066;22;20193;-89
2022/02/15 08:29:29;;;;;;;12.73;7.10;;;7.90;1.00;;;;;;6287392;22;20250;-85
2022/02/15 08:31:56;;;;;;;11.55;7.80;;;8.00;1.00;;;;;;6288197;22;20213;-89
2022/02/15 08:38:33;;;;;;;11.45;6.65;;;8.30;1.00;;;;;;6277025;22;20189;-88
2022/02/15 08:41:19;;;;;;;8.05;5.75;;;8.50;1.00;;;;;;6286498;22;20347;-88
2022/02/15 08:48:01;;;;;;;12.13;5.50;;;9.00;1.00;;;;;;6286606;22;20206;-89
2022/02/15 08:51:06;;;;;;;8.80;5.72;;;9.70;1.00;;;;;;6193961;23;20351;-90
2022/02/15 09:01:50;;;;;;;8.30;4.73;;;11.30;1.00;;;;;;6334295;22;20411;-88
2022/02/15 09:04:20;;;;;;;7.20;4.80;;;12.10;1.00;;;;;;6337742;22;20421;-87
2022/02/15 09:06:47;;;;;;;9.53;5.80;;;12.80;1.00;;;;;;6307267;22;20468;-85
2022/02/15 09:09:16;;;;;;;7.90;5.07;;;12.80;1.00;;;;;;6312711;22;20408;-86
2022/02/15 09:11:49;;;;;;;8.50;4.83;;;12.70;1.00;;;;;;6339535;22;20855;-85
2022/02/15 09:14:18;;;;;;;7.40;5.10;;;12.00;1.00;;;;;;6343001;22;20397;-87
2022/02/15 09:16:47;;;;;;;7.97;4.70;;;11.80;1.00;;;;;;6310091;22;20374;-87
2022/02/15 09:19:14;;;;;;;10.30;5.20;;;11.80;1.00;;;;;;6308673;22;20464;-85
2022/02/15 09:21:42;;;;;;;7.30;4.70;;;11.60;1.00;;;;;;6339085;22;20516;-85
2022/02/15 09:24:09;;;;;;;10.07;5.40;;;11.70;1.00;;;;;;6336135;22;20404;-85
2022/02/15 09:26:36;;;;;;;8.83;4.90;;;12.10;1.00;;;;;;6310402;22;20468;-86
2022/02/15 09:29:22;;;;;;;5.60;4.30;;;12.50;1.00;;;;;;6343257;22;20382;-89
2022/02/15 09:31:51;;;;;;;8.40;5.60;;;12.60;1.00;;;;;;6345448;22;20365;-89
2022/02/15 09:34:38;;;;;;;7.87;4.73;;;12.90;1.00;;;;;;6352480;22;20396;-90
2022/02/15 09:37:08;;;;;;;7.97;4.80;;;13.20;1.00;;;;;;6345452;22;20381;-90
2022/02/15 09:39:37;;;;;;;9.90;5.33;;;13.50;1.00;;;;;;6318294;22;20409;-89
2022/02/15 09:42:07;;;;;;;8.70;6.53;;;13.80;1.00;;;;;;6311393;22;20451;-86
2022/02/15 09:44:57;;;;;;;6.10;5.00;;;14.20;1.00;;;;;;6339154;22;20401;-88
2022/02/15 09:47:42;;;;;;;6.63;5.50;;;15.20;1.00;;;;;;6336482;22;21142;-87
2022/02/15 09:50:18;;;;;;;10.73;5.10;;;16.20;1.00;;;;;;6331719;22;20404;-86
2022/02/15 09:53:03;;;;;;;7.93;5.03;;;16.70;1.00;;;;;;6345072;22;20387;-86
2022/02/15 09:58:29;;;;;;;6.90;5.10;;;16.60;1.00;;;;;;6307319;22;20392;-86
2022/02/15 10:01:25;;;;;;;11.43;5.20;;;16.30;1.00;;;;;;6336421;22;20403;-88
2022/02/15 10:32:22;;;;;;;10.90;7.33;;;11.30;1.00;;;;;;6295304;22;20432;-88
2022/02/15 10:34:57;;;;;;;9.83;6.70;;;11.20;1.00;;;;;;6319008;22;20441;-89
2022/02/15 10:37:30;;;;;;;8.47;7.10;;;11.20;1.00;;;;;;6309118;22;20388;-89
2022/02/15 10:39:58;;;;;;;10.37;6.27;;;11.10;1.00;;;;;;6278821;22;20402;-85
2022/02/15 10:42:28;;;;;;;10.10;6.73;;;11.00;1.00;;;;;;6301258;22;20428;-85
2022/02/15 10:44:59;;;;;;;12.70;7.77;;;11.00;1.00;;;;;;6305122;22;20480;-84
2022/02/15 10:47:29;;;;;;;6.50;5.57;;;11.10;1.00;;;;;;6295570;22;20505;-85
2022/02/15 10:49:58;;;;;;;8.50;6.43;;;11.10;1.00;;;;;;6304334;22;20464;-85
2022/02/15 10:52:25;;;;;;;7.77;6.13;;;11.10;1.00;;;;;;6297399;22;20476;-85
2022/02/15 11:39:08;;;;;;;9.57;5.57;;;11.30;1.00;;;;;;6311546;22;20426;-89
2022/02/15 12:23:08;;;;;;;6.90;4.53;;;11.10;1.00;;;;;;6346671;22;20394;-85
2022/02/15 12:25:44;;;;;;;3.70;3.10;;;11.10;1.00;;;;;;6339964;22;20394;-86
2022/02/15 12:28:11;;;;;;;6.57;4.73;;;11.20;1.00;;;;;;6344543;22;21100;-86
2022/02/15 12:30:43;;;;;;;5.80;4.00;;;11.20;1.00;;;;;;6342176;22;20394;-87
2022/02/15 12:33:10;;;;;;;5.37;4.73;;;11.30;1.00;;;;;;6349699;22;20420;-87
2022/02/15 12:35:37;;;;;;;4.80;3.90;;;11.30;1.00;;;;;;6344163;22;20455;-86
2022/02/15 12:38:07;;;;;;;4.60;4.00;;;11.30;1.00;;;;;;6314670;22;20414;-86
2022/02/15 12:40:34;;;;;;;5.40;4.03;;;11.30;1.00;;;;;;6341769;22;20505;-87
2022/02/15 12:43:00;;;;;;;5.33;4.23;;;11.30;1.00;;;;;;6313229;22;20493;-86
2022/02/15 12:45:29;;;;;;;4.70;3.87;;;11.40;1.00;;;;;;6347527;22;20398;-87
2022/02/15 12:47:56;;;;;;;4.57;3.87;;;11.40;1.00;;;;;;6361466;22;20507;-86
2022/02/15 12:50:28;;;;;;;3.57;3.20;;;11.50;1.00;;;;;;6365652;22;20657;-87
2022/02/15 12:53:03;;;;;;;4.50;4.10;;;11.80;1.00;;;;;;6337943;22;20471;-90
2022/02/15 12:55:33;;;;;;;5.67;3.17;;;12.10;1.00;;;;;;6331678;22;20551;-86
2022/02/15 12:58:02;;;;;;;11.67;9.07;;;12.30;1.00;;;;;;6319763;22;21223;-82
2022/02/15 13:00:29;;;;;;;5.93;4.20;;;12.30;1.00;;;;;;6339509;22;20394;-80
2022/02/15 13:02:56;;;;;;;4.10;3.70;;;12.40;1.00;;;;;;6340166;22;20641;-81
2022/02/15 13:05:32;;;;;;;5.70;3.50;;;12.30;1.00;;;;;;6314567;22;20388;-90
2022/02/15 13:08:00;;;;;;;5.80;3.10;;;12.10;1.00;;;;;;6349656;22;20397;-80
2022/02/15 13:10:27;;;;;;;5.77;4.43;;;12.00;1.00;;;;;;6317113;22;20455;-83
2022/02/15 13:21:01;;;;;;;4.73;3.83;;;11.60;1.00;;;;;;6197380;23;20452;-91
2022/02/15 13:44:33;;;;;;;;;;;;;;;;;;;;;
2022/02/15 13:54:25;;;;;;;5.90;4.90;;;11.20;1.00;;;;;;6091091;23;20493;-89
2022/02/15 13:57:39;;;;;;;7.57;4.30;;;11.20;1.00;;;;;;6186594;23;20474;-88
2022/02/15 14:00:15;;;;;;;11.07;5.57;;;11.20;1.00;;;;;;6106244;23;20396;-86
2022/02/15 14:03:19;;;;;;;7.63;4.83;;;11.20;1.00;;;;;;6185664;23;20386;-88
2022/02/15 14:06:30;;;;;;;11.27;7.23;;;11.40;1.00;;;;;;6187261;22;20388;-87
2022/02/15 14:09:35;;;;;;;6.77;5.23;;;11.50;1.00;;;;;;6257926;22;20407;-87
2022/02/15 14:12:37;;;;;;;7.07;5.43;;;11.40;1.00;;;;;;6287042;22;20387;-88
2022/02/15 14:15:37;;;;;;;6.67;5.13;;;11.30;1.00;;;;;;6182315;23;20383;-86
2022/02/15 14:19:08;;;;;;;9.70;7.47;;;11.20;1.00;;;;;;6306896;22;20425;-86
2022/02/15 14:22:21;;;;;;;6.57;5.43;;;11.10;1.00;;;;;;6276377;22;20478;-87
2022/02/15 14:28:14;;;;;;;9.27;6.67;;;10.90;1.00;;;;;;6319014;22;20379;-87
2022/02/15 14:31:03;;;;;;;6.90;5.77;;;10.90;1.00;;;;;;6298748;22;20456;-88
2022/02/15 14:33:56;;;;;;;11.50;6.63;;;10.90;1.00;;;;;;6288599;22;21400;-87
2022/02/15 14:36:55;;;;;;;9.13;6.43;;;10.90;1.00;;;;;;6314845;22;20433;-87
2022/02/15 14:57:23;;;;;;;10.37;6.17;;;10.70;1.00;;;;;;6280743;22;20399;-89
2022/02/15 15:11:07;;;;;;;9.70;6.20;;;10.60;1.00;;;;;;6128958;22;20467;-89
2022/02/15 15:17:44;;;;;;;11.50;6.67;;;10.60;1.00;;;;;;6080568;22;20407;-88
2022/02/15 15:32:24;;;;;;;;;;;;;;;;;;;;;
2022/02/15 15:47:59;;;;;;;8.40;6.27;;;10.40;1.00;;;;;;6311858;22;20406;-86
2022/02/15 15:51:15;;;;;;;9.33;7.03;;;10.40;1.00;;;;;;6337720;22;20355;-89
2022/02/15 16:05:06;;;;;;;7.67;6.17;;;10.50;1.00;;;;;;6113125;22;20421;-85
2022/02/15 16:20:36;;;;;;;7.40;6.60;;;9.70;1.00;;;;;;6276748;22;20407;-86
2022/02/15 16:23:09;;;;;;;13.13;8.30;;;9.60;1.00;;;;;;6282216;22;20417;-88
2022/02/15 16:26:12;;;;;;;11.83;8.70;;;9.40;1.00;;;;;;6273325;22;20419;-89
2022/02/15 16:32:52;;;;;;;14.70;10.17;;;9.20;1.00;;;;;;6162460;23;20414;-87
2022/02/15 16:35:23;;;;;;;10.30;7.88;;;9.10;1.00;;;;;;6161561;22;20477;-87
2022/02/15 16:38:03;;;;;;;15.15;9.90;;;9.00;1.00;;;;;;6286146;22;20176;-88
2022/02/15 16:50:15;;;;;;;8.23;6.50;;;8.70;1.00;;;;;;6270883;22;20381;-87
2022/02/15 16:52:45;;;;;;;9.00;6.20;;;8.70;1.00;;;;;;6274097;22;20457;-86
2022/02/15 16:55:23;;;;;;;8.23;7.07;;;8.60;1.00;;;;;;6276433;22;20529;-87
2022/02/15 16:57:50;;;;;;;8.98;6.20;;;8.60;1.00;;;;;;6275513;22;20198;-88
2022/02/15 17:00:17;;;;;;;8.97;6.40;;;8.60;1.00;;;;;;6272291;22;20230;-88
2022/02/15 17:03:29;;;;;;;10.20;6.95;;;8.50;1.00;;;;;;6277766;22;20411;-87
2022/02/15 17:06:09;;;;;;;15.80;10.80;;;8.40;1.00;;;;;;6275792;22;20198;-86
2022/02/15 17:08:38;;;;;;;16.05;10.23;;;8.40;1.00;;;;;;6277747;22;20291;-87
2022/02/15 17:11:26;;;;;;;10.27;7.55;;;8.30;1.00;;;;;;6279887;22;20204;-89
2022/02/15 17:17:23;;;;;;;10.70;7.50;;;8.20;1.00;;;;;;6194547;22;20401;-87
2022/02/15 17:20:19;;;;;;;9.73;7.07;;;8.10;1.00;;;;;;6280798;22;20410;-87
2022/02/15 17:22:52;;;;;;;11.55;8.50;;;8.00;1.00;;;;;;6278729;22;20190;-88
2022/02/15 17:25:24;;;;;;;9.85;8.18;;;8.00;1.00;;;;;;6279563;22;20253;-86
2022/02/15 17:27:55;;;;;;;9.40;7.80;;;7.90;1.00;;;;;;6289156;22;20209;-86
2022/02/15 17:30:24;;;;;;;11.10;8.57;;;7.80;1.00;;;;;;6281816;22;20190;-86
2022/02/15 17:32:51;;;;;;;10.80;9.10;;;7.70;1.00;;;;;;6280257;22;20196;-87
2022/02/15 17:35:20;;;;;;;16.88;9.25;;;7.70;1.00;;;;;;6286341;22;20197;-87
2022/02/15 17:37:51;;;;;;;14.95;9.18;;;7.60;1.00;;;;;;6281542;22;20638;-87
2022/02/15 17:40:34;;;;;;;10.60;9.23;;;7.60;1.00;;;;;;6279080;22;20196;-87
2022/02/15 17:43:06;;;;;;;11.77;8.50;;;7.60;1.00;;;;;;6277571;22;20177;-88
2022/02/15 17:45:36;;;;;;;13.15;9.50;;;7.50;1.00;;;;;;6278481;22;20208;-86
2022/02/15 17:48:06;;;;;;;12.20;10.52;;;7.40;1.00;;;;;;6283430;22;20268;-85
2022/02/15 17:50:36;;;;;;;19.15;10.98;;;7.40;1.00;;;;;;6290419;22;20193;-86
2022/02/15 17:53:04;;;;;;;15.80;10.50;;;7.40;1.00;;;;;;6293860;22;20215;-83
2022/02/15 17:55:31;;;;;;;17.80;11.90;;;7.40;1.00;;;;;;6292120;22;20284;-86
2022/02/15 17:57:58;;;;;;;15.02;11.35;;;7.40;1.00;;;;;;6288360;22;20209;-85
2022/02/15 18:00:26;;;;;;;17.58;11.73;;;7.40;1.00;;;;;;6285988;22;20195;-86
2022/02/15 18:02:53;;;;;;;11.45;9.52;;;7.30;1.00;;;;;;6280522;22;20217;-86
2022/02/15 18:05:21;;;;;;;11.95;10.65;;;7.30;1.00;;;;;;6279869;22;20628;-86
2022/02/15 18:07:48;;;;;;;11.50;9.50;;;7.30;1.00;;;;;;6284094;22;20210;-85
2022/02/15 18:10:15;;;;;;;12.07;9.77;;;7.30;1.00;;;;;;6283770;22;20225;-84
2022/02/15 18:12:43;;;;;;;11.05;9.25;;;7.30;1.00;;;;;;6287936;22;20741;-85
2022/02/15 18:15:12;;;;;;;12.90;9.45;;;7.30;1.00;;;;;;6284225;22;20192;-85
2022/02/15 18:17:40;;;;;;;12.98;10.20;;;7.20;1.00;;;;;;6300534;22;21514;-87
2022/02/15 18:20:09;;;;;;;11.93;9.30;;;7.20;1.00;;;;;;6282372;22;20192;-85
2022/02/15 18:22:36;;;;;;;18.48;10.63;;;7.20;1.00;;;;;;6284080;22;20284;-84
2022/02/15 18:25:04;;;;;;;12.77;9.45;;;7.30;1.00;;;;;;6283389;22;20253;-85
2022/02/15 18:27:31;;;;;;;12.07;9.90;;;7.30;1.00;;;;;;6283370;22;20190;-86
2022/02/15 18:29:58;;;;;;;11.27;10.07;;;7.40;1.00;;;;;;6284912;22;20204;-85
2022/02/15 18:32:25;;;;;;;13.38;10.43;;;7.40;1.00;;;;;;6288333;22;20217;-84
2022/02/15 18:34:53;;;;;;;11.52;9.70;;;7.40;1.00;;;;;;6289173;22;20191;-85
2022/02/15 18:37:23;;;;;;;13.00;9.65;;;7.50;1.00;;;;;;6286995;22;20192;-85
2022/02/15 18:39:51;;;;;;;12.05;9.45;;;7.50;1.00;;;;;;6285733;22;20469;-85
2022/02/15 18:42:20;;;;;;;10.38;9.05;;;7.50;1.00;;;;;;6286534;22;20189;-88
2022/02/15 18:44:50;;;;;;;13.73;9.63;;;7.50;1.00;;;;;;6286641;22;20208;-87
2022/02/15 18:47:18;;;;;;;16.23;9.30;;;7.50;1.00;;;;;;6289380;22;20272;-86
2022/02/15 18:49:45;;;;;;;11.32;8.02;;;7.60;1.00;;;;;;6279204;22;20204;-84
2022/02/15 18:52:13;;;;;;;9.48;8.50;;;7.60;1.00;;;;;;6279683;22;20203;-88
2022/02/15 18:54:42;;;;;;;11.98;8.30;;;7.60;1.00;;;;;;6277714;22;20206;-88
2022/02/15 18:57:13;;;;;;;13.82;11.27;;;7.60;1.00;;;;;;6271524;22;20213;-87
2022/02/15 18:59:40;;;;;;;14.60;10.35;;;7.60;1.00;;;;;;6274706;22;20190;-88
2022/02/15 19:02:07;;;;;;;14.10;8.77;;;7.50;1.00;;;;;;6277683;22;20208;-88
2022/02/15 19:04:34;;;;;;;13.00;9.77;;;7.50;1.00;;;;;;6277199;22;20245;-89
2022/02/15 19:07:01;;;;;;;14.32;10.00;;;7.50;1.00;;;;;;6280420;22;20199;-89
2022/02/15 19:09:29;;;;;;;11.43;8.77;;;7.50;1.00;;;;;;6287142;22;20207;-89
2022/02/15 19:11:56;;;;;;;15.00;10.75;;;7.50;1.00;;;;;;6282026;22;20283;-89
2022/02/15 19:14:23;;;;;;;14.00;10.30;;;7.50;1.00;;;;;;6283478;22;20216;-87
2022/02/15 19:16:51;;;;;;;13.98;9.40;;;7.50;1.00;;;;;;6277643;22;20190;-87
2022/02/15 19:19:19;;;;;;;16.33;10.25;;;7.50;1.00;;;;;;6278205;22;20192;-85
2022/02/15 19:21:48;;;;;;;12.43;9.18;;;7.50;1.00;;;;;;6276717;22;20299;-84
2022/02/15 19:24:15;;;;;;;14.13;9.90;;;7.50;1.00;;;;;;6272295;22;20295;-86
2022/02/15 19:26:45;;;;;;;11.38;8.45;;;7.40;1.00;;;;;;6270705;22;20189;-86
2022/02/15 19:29:12;;;;;;;13.20;9.07;;;7.40;1.00;;;;;;6274179;22;20216;-85
2022/02/15 19:31:40;;;;;;;11.65;9.48;;;7.30;1.00;;;;;;6275497;22;20298;-85
2022/02/15 19:34:07;;;;;;;11.68;9.10;;;7.20;1.00;;;;;;6276896;22;20236;-87
2022/02/15 19:36:34;;;;;;;10.98;7.88;;;7.10;1.00;;;;;;6276803;22;20200;-86
2022/02/15 19:39:01;;;;;;;13.38;9.38;;;7.00;1.00;;;;;;6276902;22;20262;-84
2022/02/15 19:41:30;;;;;;;10.80;8.02;;;7.00;1.00;;;;;;6275830;22;20215;-86
2022/02/15 19:44:00;;;;;;;10.32;8.55;;;7.00;1.00;;;;;;6273123;22;21256;-85
2022/02/15 19:46:29;;;;;;;10.68;9.38;;;6.90;1.00;;;;;;6274934;22;20200;-85
2022/02/15 19:48:57;;;;;;;10.85;8.90;;;6.90;1.00;;;;;;6278710;22;20319;-85
2022/02/15 19:51:24;;;;;;;12.88;9.70;;;6.80;1.00;;;;;;6291163;22;20257;-84
2022/02/15 19:53:52;;;;;;;10.60;8.20;;;6.80;1.00;;;;;;6287883;22;20185;-84
2022/02/15 19:56:19;;;;;;;10.43;8.52;;;6.70;1.00;;;;;;6282225;22;20262;-86
2022/02/15 19:58:46;;;;;;;10.85;8.95;;;6.70;1.00;;;;;;6282851;22;20553;-86
2022/02/15 20:01:14;;;;;;;12.05;9.02;;;6.70;1.00;;;;;;6279160;22;20234;-85
2022/02/15 20:03:41;;;;;;;8.95;8.05;;;6.60;1.00;;;;;;6276988;22;20293;-84
2022/02/15 20:06:08;;;;;;;11.48;8.68;;;6.70;1.00;;;;;;6278530;22;20202;-85
2022/02/15 20:08:36;;;;;;;8.93;7.90;;;6.60;1.00;;;;;;6279518;22;20231;-86
2022/02/15 20:11:04;;;;;;;10.77;8.30;;;6.60;1.00;;;;;;6278220;22;20200;-86
2022/02/15 20:13:31;;;;;;;13.63;9.38;;;6.60;1.00;;;;;;6283666;22;20200;-86
2022/02/15 20:15:58;;;;;;;11.15;8.80;;;6.50;1.00;;;;;;6279914;22;20192;-86
2022/02/15 20:18:27;;;;;;;13.02;10.15;;;6.50;1.00;;;;;;6281650;22;20192;-86
2022/02/15 20:20:54;;;;;;;11.32;8.38;;;6.40;1.00;;;;;;6286061;22;20180;-84
2022/02/15 20:23:22;;;;;;;11.00;9.00;;;6.40;1.00;;;;;;6290338;22;20338;-85
2022/02/15 20:25:49;;;;;;;13.00;8.50;;;6.40;1.00;;;;;;6291205;22;20231;-85
2022/02/15 20:28:16;;;;;;;12.88;8.75;;;6.40;1.00;;;;;;6282535;22;20247;-87
2022/02/15 20:30:42;;;;;;;12.45;8.93;;;6.40;1.00;;;;;;6280363;22;20212;-86
2022/02/15 20:33:09;;;;;;;11.05;8.70;;;6.30;1.00;;;;;;6282920;22;20250;-85
2022/02/15 20:35:38;;;;;;;10.57;7.22;;;6.40;1.00;;;;;;6278843;22;20192;-87
2022/02/15 20:38:08;;;;;;;9.73;8.07;;;6.30;1.00;;;;;;6286524;22;20196;-88
2022/02/15 20:40:38;;;;;;;11.40;7.68;;;6.30;1.00;;;;;;6286799;22;20200;-84
2022/02/15 20:43:07;;;;;;;9.93;7.93;;;6.30;1.00;;;;;;6284747;22;20196;-85
2022/02/15 20:45:35;;;;;;;11.38;7.60;;;6.20;1.00;;;;;;6286811;22;20199;-86
2022/02/15 20:48:03;;;;;;;10.10;7.10;;;6.20;1.00;;;;;;6283234;22;20201;-85
2022/02/15 20:50:30;;;;;;;9.30;6.38;;;6.20;1.00;;;;;;6285011;22;20299;-87
2022/02/15 20:52:58;;;;;;;8.77;7.00;;;6.20;1.00;;;;;;6290114;22;20846;-87
2022/02/15 20:55:25;;;;;;;11.30;7.20;;;6.20;1.00;;;;;;6292098;22;20196;-87
2022/02/15 20:57:52;;;;;;;9.15;6.63;;;6.20;1.00;;;;;;6304945;22;20188;-85
2022/02/15 21:00:20;;;;;;;7.38;6.35;;;6.20;1.00;;;;;;6308175;22;20197;-86
2022/02/15 21:02:46;;;;;;;9.23;7.00;;;6.10;1.00;;;;;;6309627;22;20195;-85
2022/02/15 21:05:13;;;;;;;9.57;6.70;;;6.10;1.00;;;;;;6308371;22;20184;-84
2022/02/15 21:07:41;;;;;;;10.75;6.75;;;6.10;1.00;;;;;;6307400;22;20187;-85
2022/02/15 21:10:10;;;;;;;7.45;6.63;;;6.10;1.00;;;;;;6306889;22;20277;-85
2022/02/15 21:12:37;;;;;;;7.90;5.88;;;6.10;1.00;;;;;;6286419;22;20196;-86
2022/02/15 21:15:05;;;;;;;10.40;7.05;;;6.10;1.00;;;;;;6278605;22;20282;-86
2022/02/15 21:17:36;;;;;;;6.57;5.50;;;6.10;1.00;;;;;;6276944;22;20219;-85
2022/02/15 21:20:05;;;;;;;7.32;6.00;;;6.10;1.00;;;;;;6278885;22;20472;-85
2022/02/15 21:22:32;;;;;;;7.38;5.65;;;6.10;1.00;;;;;;6281388;22;20532;-85
2022/02/15 21:24:59;;;;;;;8.18;6.30;;;6.10;1.00;;;;;;6281358;22;20192;-86
2022/02/15 21:27:27;;;;;;;7.68;6.07;;;6.10;1.00;;;;;;6286844;22;20205;-86
2022/02/15 21:29:56;;;;;;;7.25;5.78;;;6.00;1.00;;;;;;6282761;22;20212;-86
2022/02/15 21:32:23;;;;;;;7.00;5.50;;;6.00;1.00;;;;;;6280199;22;20193;-87
2022/02/15 21:34:50;;;;;;;7.80;6.72;;;6.00;1.00;;;;;;6281777;22;21294;-85
2022/02/15 21:37:19;;;;;;;5.90;5.25;;;5.90;1.00;;;;;;6283202;22;20196;-86
2022/02/15 21:39:45;;;;;;;8.38;5.75;;;5.90;1.00;;;;;;6278426;22;20184;-86
2022/02/15 21:42:13;;;;;;;8.02;5.80;;;5.80;1.00;;;;;;6282319;22;20193;-84
2022/02/15 21:44:41;;;;;;;6.20;5.45;;;5.80;1.00;;;;;;6279871;22;20196;-85
2022/02/15 21:47:10;;;;;;;6.82;6.13;;;5.80;1.00;;;;;;6281779;22;20184;-85
2022/02/15 21:49:40;;;;;;;7.53;5.95;;;5.80;1.00;;;;;;6279485;22;20201;-85
2022/02/15 21:52:07;;;;;;;7.05;5.47;;;5.80;1.00;;;;;;6280150;22;20956;-85
2022/02/15 21:54:34;;;;;;;6.50;5.65;;;5.80;1.00;;;;;;6280863;22;20192;-85
2022/02/15 21:57:02;;;;;;;7.30;6.25;;;5.80;1.00;;;;;;6278940;22;20196;-88
2022/02/15 21:59:30;;;;;;;6.57;5.85;;;5.80;1.00;;;;;;6278783;22;21024;-85
2022/02/15 22:02:01;;;;;;;6.32;5.05;;;5.70;1.00;;;;;;6276421;22;20180;-87
2022/02/15 22:04:39;;;;;;;6.93;5.20;;;5.70;1.00;;;;;;6289923;22;20179;-86
2022/02/15 22:07:09;;;;;;;7.28;5.88;;;5.70;1.00;;;;;;6293280;22;20195;-87
2022/02/15 22:09:35;;;;;;;9.38;6.47;;;5.70;1.00;;;;;;6296630;22;20207;-87
2022/02/15 22:12:03;;;;;;;8.13;5.25;;;5.70;1.00;;;;;;6286537;22;20192;-87
2022/02/15 22:14:30;;;;;;;6.13;5.15;;;5.70;1.00;;;;;;6278809;22;20192;-87
2022/02/15 22:16:58;;;;;;;9.90;6.00;;;5.70;1.00;;;;;;6283257;22;20965;-86
2022/02/15 22:19:25;;;;;;;6.10;5.50;;;5.70;1.00;;;;;;6284574;22;20192;-85
2022/02/15 22:21:55;;;;;;;6.35;5.72;;;5.70;1.00;;;;;;6288377;22;20187;-85
2022/02/15 22:24:22;;;;;;;6.28;5.68;;;5.60;1.00;;;;;;6284916;22;20198;-87
2022/02/15 22:26:49;;;;;;;5.78;4.95;;;5.60;1.00;;;;;;6281228;22;20268;-86
2022/02/15 22:29:16;;;;;;;6.68;5.28;;;5.60;1.00;;;;;;6280333;22;20192;-86
2022/02/15 22:31:45;;;;;;;7.03;5.10;;;5.60;1.00;;;;;;6298797;22;20199;-87
2022/02/15 22:34:15;;;;;;;8.25;5.38;;;5.50;1.00;;;;;;6283830;22;20191;-86
2022/02/15 22:36:43;;;;;;;6.32;5.05;;;5.50;1.00;;;;;;6277721;22;20200;-86
2022/02/15 22:39:09;;;;;;;6.20;5.05;;;5.50;1.00;;;;;;6278611;22;20240;-86
2022/02/15 22:41:36;;;;;;;7.75;4.70;;;5.50;1.00;;;;;;6280669;22;20203;-85
2022/02/15 22:44:03;;;;;;;7.55;5.28;;;5.50;1.00;;;;;;6286212;22;20246;-85
2022/02/15 22:46:38;;;;;;;7.15;5.30;;;5.50;1.00;;;;;;6288628;22;20214;-85
2022/02/15 22:51:51;;;;;;;6.55;4.35;;;5.50;1.00;;;;;;6310136;22;20168;-86
2022/02/15 22:54:19;;;;;;;6.70;4.78;;;5.50;1.00;;;;;;6309792;22;20172;-86
2022/02/15 22:56:47;;;;;;;6.50;5.40;;;5.60;1.00;;;;;;6301561;22;20308;-86
2022/02/15 22:59:14;;;;;;;6.75;5.10;;;5.60;1.00;;;;;;6290972;22;20192;-86
2022/02/15 23:01:41;;;;;;;6.47;5.18;;;5.60;1.00;;;;;;6288994;22;20188;-85
2022/02/15 23:04:07;;;;;;;7.47;4.75;;;5.60;1.00;;;;;;6284693;22;20726;-86
2022/02/15 23:20:23;;;;;;;5.03;4.20;;;5.70;1.00;;;;;;6286893;22;20200;-86
2022/02/15 23:22:49;;;;;;;5.40;4.63;;;5.70;1.00;;;;;;6278494;22;20180;-85
2022/02/15 23:25:17;;;;;;;4.75;4.00;;;5.70;1.00;;;;;;6276608;22;20303;-85
2022/02/15 23:27:45;;;;;;;8.77;4.80;;;5.80;1.00;;;;;;6279937;22;20267;-85
2022/02/15 23:30:13;;;;;;;6.05;4.38;;;5.80;1.00;;;;;;6274127;22;20266;-84
2022/02/15 23:32:40;;;;;;;6.80;5.38;;;5.80;1.00;;;;;;6275119;22;20192;-84
2022/02/15 23:35:08;;;;;;;4.85;3.75;;;5.80;1.00;;;;;;6274556;22;20189;-85
2022/02/15 23:37:36;;;;;;;4.43;3.58;;;5.80;1.00;;;;;;6278069;22;20211;-85
2022/02/15 23:40:04;;;;;;;6.18;3.85;;;5.80;1.00;;;;;;6272696;22;20199;-85
2022/02/15 23:42:36;;;;;;;6.45;3.42;;;5.80;1.00;;;;;;6283753;22;20200;-86
2022/02/15 23:45:03;;;;;;;4.38;3.50;;;5.80;1.00;;;;;;6276964;22;20287;-85
2022/02/15 23:47:30;;;;;;;4.88;3.30;;;5.80;1.00;;;;;;6277100;22;20223;-85
2022/02/15 23:49:57;;;;;;;6.85;3.78;;;5.80;1.00;;;;;;6276643;22;20204;-85
2022/02/15 23:52:24;;;;;;;5.35;4.13;;;5.80;1.00;;;;;;6276621;22;20181;-85
2022/02/15 23:54:51;;;;;;;6.15;3.97;;;5.80;1.00;;;;;;6277414;22;20211;-85
2022/02/15 23:57:18;;;;;;;5.28;3.97;;;5.80;1.00;;;;;;6277624;22;20208;-85
2022/02/15 23:59:46;;;;;;;4.88;3.65;;;5.80;1.00;;;;;;6276421;22;20260;-84
